Arroyo, Texas
Current Conditions -  °F | °C
As of 12:52 PM on Monday 20 Oct 2014 (Local Time) from KHRL Reporting Station
Overcast Overcast  
Wind Chill: 29°   Ceiling: 7000
Heat Index: 32°   Visibility: 10mi
Dew Point: 21°   Wind: 8mph
Humidity: 59%   Direction: 90°E
Pressure: 29.94"   Gusts: NA
Location:  26.2089°N, 97.6849°W
Report Text: KHRL 201752Z 09007KT 10SM FEW041 SCT050 OVC070 29/21 A2994 RMK AO2 SLP140 T02940206 58005
Loading
Personal Weather Stations






























Interactive Weather Map
Tropical Storm Tracking
New forecast layout! Learn more

10-Day Weather Forecast

Advertisements
Track Severe Weather on mobile